T'ai-chung, Taiwan
Current Conditions -  °F | °C
As of 6:30 PM on Sunday 21 Dec 2014 (Local Time) from RCMQ Reporting Station
Scattered Clouds Scattered Clouds  
Wind Chill: 52°   Ceiling: Unl
Heat Index: 52°   Visibility: 6mi
Dew Point: 48°   Wind: 17mph
Humidity: 88%   Direction: 10°N
Pressure: 30.18"   Gusts: 29mph
Location:  24.15°N, 120.68°E
Report Text: RCMQ 211030Z 01015G25KT 9999 SCT010 11/09 Q1022 RMK A3018
Loading
Personal Weather Stations






























Interactive Weather Map New forecast layout! Learn more

10-Day Weather Forecast

Advertisements
Track Severe Weather on mobile